Time;durP1;ratioP1;P1;durP2;ratioP2;P2;SDS_P1;SDS_P2;PMS_P1;PMS_P2;Temp;Humidity;BMP_temperature;BMP_pressure;BME280_temperature;BME280_humidity;BME280_pressure;Samples;Min_cycle;Max_cycle;Signal;HPM_P1;HPM_P2
2022/04/23 00:01:42;;;;;;;6.63;3.47;;;;;;;15.41;49.38;98400.81;5035774;28;20064;-87
2022/04/23 00:04:09;;;;;;;6.32;3.30;;;;;;;15.45;49.74;98396.31;5019773;28;20475;-87
2022/04/23 00:06:34;;;;;;;7.68;3.03;;;;;;;15.38;49.73;98387.88;5018916;28;20453;-87
2022/04/23 00:09:00;;;;;;;8.68;3.70;;;;;;;15.32;49.98;98379.94;5019289;28;20036;-87
2022/04/23 00:11:26;;;;;;;5.40;3.30;;;;;;;15.27;50.11;98366.56;5035563;28;20033;-87
2022/04/23 00:13:51;;;;;;;11.38;3.50;;;;;;;15.32;49.97;98374.50;5034946;28;20039;-87
2022/04/23 00:16:17;;;;;;;6.72;3.65;;;;;;;15.28;49.87;98373.56;5018701;28;20395;-88
2022/04/23 00:18:42;;;;;;;9.15;3.55;;;;;;;15.27;49.89;98377.41;5018687;28;20029;-87
2022/04/23 00:21:08;;;;;;;4.30;2.97;;;;;;;15.22;50.11;98383.00;5036955;28;20040;-88
2022/04/23 00:23:34;;;;;;;6.32;3.55;;;;;;;15.25;50.27;98381.53;5019243;28;20086;-87
2022/04/23 00:26:01;;;;;;;5.38;3.38;;;;;;;15.15;50.24;98369.16;5034764;28;20108;-87
2022/04/23 00:28:26;;;;;;;8.48;3.35;;;;;;;15.16;50.47;98381.56;5001980;28;20025;-87
2022/04/23 00:30:52;;;;;;;6.93;3.35;;;;;;;15.10;50.60;98394.50;5018603;28;20517;-87
2022/04/23 00:33:18;;;;;;;7.65;3.38;;;;;;;15.10;50.59;98396.41;5018418;28;20021;-87
2022/04/23 00:35:44;;;;;;;6.32;3.78;;;;;;;15.09;50.76;98400.25;5018919;28;20029;-87
2022/04/23 00:38:10;;;;;;;7.13;3.63;;;;;;;15.11;50.64;98408.88;5017228;28;20029;-88
2022/04/23 00:40:36;;;;;;;6.72;3.75;;;;;;;15.05;50.88;98397.38;5002420;28;20021;-87
2022/04/23 00:43:05;;;;;;;8.18;3.95;;;;;;;15.01;51.06;98396.44;5002039;28;20029;-88
2022/04/23 00:45:31;;;;;;;7.15;3.63;;;;;;;15.01;51.48;98393.72;5002722;28;20053;-87
2022/04/23 00:47:56;;;;;;;11.55;3.83;;;;;;;14.99;51.24;98406.03;5017246;28;20025;-87
2022/04/23 00:50:22;;;;;;;6.95;3.60;;;;;;;15.01;51.46;98401.06;5002677;28;20399;-86
2022/04/23 00:52:54;;;;;;;7.95;3.63;;;;;;;14.99;51.60;98395.97;5018747;28;20045;-87
2022/04/23 00:55:19;;;;;;;7.00;3.33;;;;;;;14.96;51.70;98393.88;5018605;28;20013;-87
2022/04/23 00:57:45;;;;;;;9.55;4.07;;;;;;;14.93;51.68;98387.19;5000750;28;20037;-83
2022/04/23 01:00:11;;;;;;;7.18;3.83;;;;;;;14.89;51.73;98377.31;5018208;28;20464;-87
2022/04/23 01:02:36;;;;;;;5.78;3.85;;;;;;;14.91;52.31;98383.22;5001644;28;20034;-87
2022/04/23 01:05:08;;;;;;;8.15;3.88;;;;;;;14.89;51.81;98380.03;5001553;28;20021;-87
2022/04/23 01:07:36;;;;;;;9.10;3.85;;;;;;;14.88;52.09;98364.88;5002190;28;20029;-86
2022/04/23 01:10:02;;;;;;;10.48;5.95;;;;;;;14.82;52.31;98366.97;5017636;28;20095;-87
2022/04/23 01:12:28;;;;;;;7.57;4.18;;;;;;;14.79;52.28;98358.69;5019149;28;20025;-87
2022/04/23 01:15:00;;;;;;;9.05;4.40;;;;;;;14.76;52.21;98362.84;5001792;28;20036;-87
2022/04/23 01:17:25;;;;;;;6.93;3.88;;;;;;;14.67;52.55;98354.72;5018635;28;20029;-87
2022/04/23 01:19:51;;;;;;;8.05;3.72;;;;;;;14.72;52.14;98345.63;5001467;28;20514;-86
2022/04/23 01:22:17;;;;;;;7.45;4.10;;;;;;;14.68;52.40;98342.75;5017825;28;20491;-88
2022/04/23 01:24:43;;;;;;;11.65;4.13;;;;;;;14.65;52.65;98348.84;5034717;28;20030;-87
2022/04/23 01:27:10;;;;;;;9.05;4.10;;;;;;;14.63;52.49;98334.00;5018232;28;20053;-88
2022/04/23 01:29:36;;;;;;;7.55;4.10;;;;;;;14.59;52.37;98331.16;5001727;28;20035;-84
2022/04/23 01:32:05;;;;;;;8.30;4.30;;;;;;;14.64;52.26;98335.59;5017383;28;20479;-87
2022/04/23 01:34:31;;;;;;;10.02;4.45;;;;;;;14.58;51.93;98313.28;5017672;28;20086;-86
2022/04/23 01:36:56;;;;;;;6.63;4.00;;;;;;;14.62;51.60;98327.00;5018095;28;20527;-87
2022/04/23 01:39:21;;;;;;;9.75;3.80;;;;;;;14.61;51.59;98325.38;5017702;28;20067;-87
2022/04/23 01:41:47;;;;;;;8.80;4.00;;;;;;;14.67;51.32;98324.94;5001914;28;20099;-88
2022/04/23 01:44:13;;;;;;;5.78;3.63;;;;;;;14.64;52.03;98328.25;5017862;28;20120;-87
2022/04/23 01:46:39;;;;;;;7.68;3.75;;;;;;;14.62;51.67;98327.00;5033746;28;20022;-87
2022/04/23 01:49:04;;;;;;;7.03;3.97;;;;;;;14.51;52.23;98321.88;5016811;28;20048;-87
2022/04/23 01:51:29;;;;;;;6.55;3.80;;;;;;;14.44;51.75;98316.13;5032910;28;20018;-87
2022/04/23 01:53:55;;;;;;;7.30;3.72;;;;;;;14.53;51.56;98332.41;5034013;28;20036;-87
2022/04/23 01:56:20;;;;;;;9.23;3.78;;;;;;;14.52;51.67;98338.91;5034691;28;20029;-88
2022/04/23 01:58:46;;;;;;;10.27;4.20;;;;;;;14.59;51.46;98341.97;5033715;28;20030;-87
2022/04/23 02:01:11;;;;;;;5.82;3.65;;;;;;;14.62;51.19;98348.66;5016186;28;20037;-87
2022/04/23 02:03:37;;;;;;;8.25;3.80;;;;;;;14.58;51.17;98332.25;5018287;28;20021;-86
2022/04/23 02:06:02;;;;;;;8.10;3.90;;;;;;;14.56;51.55;98339.91;5034131;28;20032;-87
2022/04/23 02:08:28;;;;;;;7.15;4.10;;;;;;;14.54;51.78;98339.38;5017411;28;20060;-87
2022/04/23 02:10:53;;;;;;;8.55;4.10;;;;;;;14.51;51.76;98346.25;5032928;28;20025;-87
2022/04/23 02:13:18;;;;;;;5.93;3.90;;;;;;;14.52;51.61;98347.03;5033675;28;20030;-86
2022/04/23 02:15:44;;;;;;;5.60;3.97;;;;;;;14.45;51.77;98341.31;5016884;28;20025;-87
2022/04/23 02:18:10;;;;;;;10.48;4.18;;;;;;;14.43;52.04;98347.06;5033559;28;20395;-87
2022/04/23 02:20:36;;;;;;;10.70;3.97;;;;;;;14.45;51.99;98346.75;5016852;28;20025;-84
2022/04/23 02:23:02;;;;;;;12.38;4.45;;;;;;;14.40;52.45;98341.47;5032664;28;20053;-87
2022/04/23 02:25:27;;;;;;;6.78;4.22;;;;;;;14.39;52.61;98340.69;5033352;28;20026;-87
2022/04/23 02:27:52;;;;;;;7.03;4.10;;;;;;;14.35;52.40;98345.13;5016760;28;20056;-86
2022/04/23 02:30:19;;;;;;;9.80;4.43;;;;;;;14.31;52.45;98349.59;5016992;28;20123;-84
2022/04/23 02:32:45;;;;;;;5.15;4.13;;;;;;;14.27;52.34;98349.44;5016312;28;20028;-87
2022/04/23 02:35:11;;;;;;;5.93;4.10;;;;;;;14.23;52.49;98358.50;4999901;28;20114;-87
2022/04/23 02:37:36;;;;;;;10.23;4.45;;;;;;;14.20;52.48;98345.63;5016717;28;20033;-87
2022/04/23 02:40:06;;;;;;;7.80;4.10;;;;;;;14.26;52.34;98349.78;5016975;28;20480;-86
2022/04/23 02:42:33;;;;;;;7.65;4.40;;;;;;;14.23;52.15;98342.25;5015941;28;20036;-87
2022/04/23 02:45:00;;;;;;;6.35;4.20;;;;;;;14.12;52.48;98341.78;4996929;28;20048;-86
2022/04/23 02:47:29;;;;;;;5.47;3.50;;;;;;;14.12;52.36;98353.41;5014715;28;20026;-87
2022/04/23 02:49:55;;;;;;;8.27;3.63;;;;;;;14.04;52.58;98351.47;4999971;28;20018;-94
2022/04/23 02:52:20;;;;;;;4.95;3.72;;;;;;;14.05;52.70;98347.69;5001888;28;20182;-93
2022/04/23 02:54:46;;;;;;;6.80;3.97;;;;;;;13.99;53.16;98394.16;5001879;28;20413;-93
2022/04/23 02:57:12;;;;;;;11.35;5.95;;;;;;;13.91;52.08;98418.16;5001737;28;20065;-93
2022/04/23 02:59:39;;;;;;;7.72;5.20;;;;;;;13.82;52.66;98433.59;5000702;28;20107;-91
2022/04/23 03:02:07;;;;;;;10.38;5.72;;;;;;;13.73;52.82;98413.81;5003037;28;20034;-91
2022/04/23 03:04:33;;;;;;;8.40;6.22;;;;;;;13.69;52.85;98421.72;5002399;28;20484;-93
2022/04/23 03:06:58;;;;;;;7.78;5.78;;;;;;;13.70;52.97;98409.03;5019398;28;20010;-93
2022/04/23 03:09:24;;;;;;;6.70;5.75;;;;;;;13.65;53.19;98419.97;5002740;28;20042;-93
2022/04/23 03:11:49;;;;;;;9.35;6.05;;;;;;;13.56;53.66;98403.72;5018185;28;20026;-93
2022/04/23 03:14:15;;;;;;;8.88;5.85;;;;;;;13.64;53.68;98419.19;5002443;28;20034;-93
2022/04/23 03:16:41;;;;;;;7.80;5.53;;;;;;;13.52;53.79;98421.66;5002692;28;20088;-92
2022/04/23 03:19:06;;;;;;;12.95;6.05;;;;;;;13.53;54.11;98437.59;5018875;28;20034;-92
2022/04/23 03:21:32;;;;;;;8.75;5.05;;;;;;;13.50;54.09;98438.19;5001666;28;20033;-93
2022/04/23 03:23:58;;;;;;;6.40;5.07;;;;;;;13.39;54.88;98438.78;5018296;28;20037;-93
2022/04/23 03:26:23;;;;;;;11.23;5.65;;;;;;;13.34;54.55;98447.81;5019776;28;20476;-92
2022/04/23 03:28:49;;;;;;;8.20;4.72;;;;;;;13.27;54.67;98448.22;5002946;28;20047;-93
2022/04/23 03:31:14;;;;;;;10.55;4.68;;;;;;;13.25;54.29;98453.16;5001960;28;20021;-93
2022/04/23 03:33:40;;;;;;;10.15;4.88;;;;;;;13.19;54.88;98453.59;5018839;28;20033;-93
2022/04/23 03:36:06;;;;;;;8.73;5.05;;;;;;;13.14;55.12;98458.00;5002496;28;20041;-93
2022/04/23 03:38:31;;;;;;;10.85;4.70;;;;;;;13.10;55.22;98461.63;5018881;28;20026;-93
2022/04/23 03:40:57;;;;;;;9.90;5.03;;;;;;;13.11;55.73;98471.34;5017127;28;20121;-92
2022/04/23 03:43:25;;;;;;;7.30;5.40;;;;;;;13.01;56.05;98472.41;5018515;28;20041;-91
2022/04/23 03:45:52;;;;;;;8.30;5.32;;;;;;;13.02;55.55;98489.41;5017754;28;20053;-92
2022/04/23 03:48:18;;;;;;;8.52;5.38;;;;;;;12.99;56.14;98493.53;5017736;28;20025;-93
2022/04/23 03:50:43;;;;;;;11.43;5.20;;;;;;;12.89;56.05;98482.94;5017508;28;20105;-93
2022/04/23 03:53:09;;;;;;;9.23;4.47;;;;;;;12.88;56.47;98492.13;5002205;28;20029;-92
2022/04/23 03:55:34;;;;;;;10.15;4.65;;;;;;;12.91;56.58;98499.66;5001683;28;20029;-93
2022/04/23 03:58:01;;;;;;;11.73;5.55;;;;;;;12.91;56.86;98502.34;5017928;28;20010;-93
2022/04/23 04:00:28;;;;;;;9.52;4.88;;;;;;;12.93;57.41;98509.03;5017539;28;20423;-91
2022/04/23 04:02:54;;;;;;;9.40;4.50;;;;;;;12.86;56.69;98507.84;5017345;28;20022;-93
2022/04/23 04:05:20;;;;;;;6.63;5.05;;;;;;;12.87;56.85;98512.16;5001401;28;20190;-93
2022/04/23 04:07:46;;;;;;;9.18;4.20;;;;;;;12.90;56.33;98514.25;5017999;28;20018;-94
2022/04/23 04:10:17;;;;;;;10.30;3.88;;;;;;;12.90;55.84;98506.16;5018001;28;20040;-93
2022/04/23 04:12:43;;;;;;;12.20;3.72;;;;;;;12.92;55.49;98502.03;5016312;28;20026;-94
2022/04/23 04:15:10;;;;;;;11.43;4.72;;;;;;;13.05;55.38;98513.91;5001309;28;20014;-93
2022/04/23 04:17:36;;;;;;;12.23;4.90;;;;;;;13.11;55.68;98522.69;5001070;28;20604;-94
2022/04/23 04:20:12;;;;;;;15.88;5.00;;;;;;;13.04;55.67;98506.09;5000938;28;20038;-93
2022/04/23 04:22:41;;;;;;;13.10;5.40;;;;;;;13.12;56.43;98524.28;5000907;28;20034;-93
2022/04/23 04:25:07;;;;;;;12.98;5.53;;;;;;;13.05;56.53;98524.72;5016040;28;20117;-93
2022/04/23 04:27:33;;;;;;;13.27;5.13;;;;;;;13.19;56.36;98521.16;5001426;28;20033;-93
2022/04/23 04:30:00;;;;;;;14.85;5.63;;;;;;;13.21;56.40;98532.47;5001102;28;20057;-93
2022/04/23 04:32:25;;;;;;;17.10;5.07;;;;;;;13.30;55.98;98520.66;5017282;28;20018;-93
2022/04/23 04:34:51;;;;;;;14.48;5.00;;;;;;;13.36;55.97;98523.22;4999825;28;20037;-93
2022/04/23 04:37:16;;;;;;;8.50;4.10;;;;;;;13.47;55.58;98538.09;5000497;28;20073;-93
2022/04/23 04:39:42;;;;;;;8.30;3.88;;;;;;;13.46;55.08;98531.09;5016278;28;20017;-94
2022/04/23 04:42:08;;;;;;;9.52;5.45;;;;;;;13.53;54.61;98537.66;5033547;28;20018;-94
2022/04/23 04:44:34;;;;;;;13.02;4.50;;;;;;;13.54;54.44;98524.94;5015991;28;20052;-92
2022/04/23 04:46:59;;;;;;;12.48;5.72;;;;;;;13.67;55.00;98531.38;5000242;28;20500;-93
2022/04/23 04:49:25;;;;;;;13.63;5.75;;;;;;;13.71;55.62;98524.22;5000129;28;20026;-93
2022/04/23 04:51:51;;;;;;;10.07;5.47;;;;;;;13.75;55.84;98517.88;5001320;28;20052;-93
2022/04/23 04:54:18;;;;;;;12.07;5.78;;;;;;;13.74;55.05;98513.59;5015923;28;20066;-93
2022/04/23 04:56:44;;;;;;;14.15;6.25;;;;;;;13.85;55.01;98513.34;5032143;28;20026;-93
2022/04/23 04:59:10;;;;;;;13.38;5.20;;;;;;;13.98;54.66;98511.63;5016113;28;20408;-92
2022/04/23 05:01:35;;;;;;;49.67;17.02;;;;;;;13.98;55.60;98515.13;4999916;28;20021;-93
2022/04/23 05:04:02;;;;;;;18.02;6.63;;;;;;;13.88;55.77;98516.22;5015770;28;20048;-94
2022/04/23 05:06:28;;;;;;;13.85;6.30;;;;;;;13.93;55.91;98516.06;4999124;28;20029;-93
2022/04/23 05:08:53;;;;;;;16.35;6.88;;;;;;;13.83;55.96;98510.13;5016738;28;20053;-92
2022/04/23 05:11:19;;;;;;;12.50;6.35;;;;;;;13.94;56.33;98514.16;4999336;28;20400;-93
2022/04/23 05:13:44;;;;;;;23.55;7.15;;;;;;;14.12;55.66;98512.34;5000087;28;20045;-92
2022/04/23 05:16:10;;;;;;;9.90;6.60;;;;;;;14.25;55.21;98507.91;5018414;28;20029;-92
2022/04/23 05:18:35;;;;;;;12.63;6.10;;;;;;;14.43;54.70;98519.59;5000737;28;20403;-94
2022/04/23 05:21:01;;;;;;;14.68;6.47;;;;;;;14.55;54.33;98517.09;5000082;28;20042;-93
2022/04/23 05:23:28;;;;;;;20.95;7.55;;;;;;;14.76;53.62;98536.28;5016673;28;20464;-93
2022/04/23 05:25:53;;;;;;;13.45;6.60;;;;;;;14.88;53.43;98531.03;5015264;28;20030;-93
2022/04/23 05:28:19;;;;;;;44.85;11.25;;;;;;;15.10;52.99;98540.13;5034000;28;20044;-91
2022/04/23 05:30:45;;;;;;;12.60;7.18;;;;;;;15.18;52.95;98533.91;5000865;28;20026;-90
2022/04/23 05:33:10;;;;;;;15.98;6.88;;;;;;;15.40;52.39;98530.22;5016619;28;20026;-92
2022/04/23 05:35:36;;;;;;;14.25;6.18;;;;;;;15.55;52.72;98521.56;5015159;28;20520;-92
2022/04/23 05:38:01;;;;;;;15.73;5.20;;;;;;;15.73;51.70;98521.59;4999681;28;20042;-92
2022/04/23 05:40:27;;;;;;;9.65;4.00;;;;;;;15.91;51.24;98514.16;5000063;28;20423;-92
2022/04/23 05:42:58;;;;;;;12.32;3.67;;;;;;;16.11;51.18;98518.88;5000493;28;20030;-93
2022/04/23 05:45:24;;;;;;;10.65;3.90;;;;;;;16.25;50.72;98509.69;5019391;28;20049;-92
2022/04/23 05:47:49;;;;;;;14.27;4.35;;;;;;;16.39;50.35;98512.19;5003141;28;20091;-92
2022/04/23 05:50:15;;;;;;;19.17;5.20;;;;;;;16.59;50.41;98516.88;5003179;28;20037;-93
2022/04/23 05:52:40;;;;;;;17.80;5.43;;;;;;;16.76;50.21;98522.19;5002761;28;20025;-93
2022/04/23 05:55:07;;;;;;;11.93;5.03;;;;;;;16.72;50.54;98510.38;5002548;28;20025;-93
2022/04/23 05:57:32;;;;;;;21.45;4.88;;;;;;;16.91;50.07;98509.16;5018542;28;20029;-92
2022/04/23 05:59:58;;;;;;;8.27;3.60;;;;;;;17.07;49.51;98509.38;5003060;28;20038;-95
2022/04/23 06:02:23;;;;;;;6.85;3.28;;;;;;;17.25;49.20;98513.53;5002534;28;20514;-93
2022/04/23 06:04:49;;;;;;;9.43;3.70;;;;;;;17.22;49.70;98521.56;5002579;28;20030;-92
2022/04/23 06:07:18;;;;;;;10.02;4.22;;;;;;;17.28;50.38;98517.50;5001029;28;20049;-93
2022/04/23 06:09:44;;;;;;;12.88;4.88;;;;;;;17.44;49.64;98510.31;5002494;28;20116;-93
2022/04/23 06:12:09;;;;;;;18.08;5.30;;;;;;;17.53;49.35;98504.78;5002670;28;20403;-93
2022/04/23 06:14:35;;;;;;;20.15;6.15;;;;;;;17.60;49.35;98524.09;5003311;28;20036;-93
2022/04/23 06:17:00;;;;;;;16.42;4.93;;;;;;;17.74;49.20;98512.88;5001810;28;20403;-93
2022/04/23 06:19:26;;;;;;;14.02;3.40;;;;;;;17.54;49.42;98511.84;5019138;28;20515;-94
2022/04/23 06:21:51;;;;;;;16.00;3.70;;;;;;;17.36;49.83;98516.63;5004758;28;20396;-93
2022/04/23 06:24:17;;;;;;;42.88;4.90;;;;;;;17.50;49.57;98521.81;5006587;28;20029;-93
2022/04/23 06:26:42;;;;;;;10.45;3.40;;;;;;;17.56;49.03;98518.53;5005147;28;20029;-93
2022/04/23 06:29:08;;;;;;;15.93;4.20;;;;;;;17.82;49.16;98520.16;5006956;28;20056;-92
2022/04/23 06:31:33;;;;;;;16.15;3.90;;;;;;;17.84;48.62;98517.94;5007378;28;20415;-91
2022/04/23 06:34:00;;;;;;;12.90;4.10;;;;;;;17.69;49.42;98519.34;5007011;28;20030;-92
2022/04/23 06:36:26;;;;;;;9.10;3.55;;;;;;;17.77;48.89;98520.41;5005442;28;20033;-93
2022/04/23 06:38:54;;;;;;;7.38;4.00;;;;;;;17.92;47.80;98513.53;5006876;28;20424;-93
2022/04/23 06:41:20;;;;;;;15.40;4.13;;;;;;;18.00;48.75;98528.19;5006771;28;20502;-92
2022/04/23 06:43:45;;;;;;;9.57;4.32;;;;;;;17.95;48.58;98524.56;5007975;28;20010;-93
2022/04/23 06:46:10;;;;;;;10.38;3.60;;;;;;;18.02;47.61;98526.72;5006147;28;20049;-93
2022/04/23 06:48:36;;;;;;;14.43;3.13;;;;;;;18.07;47.55;98531.13;5022484;28;20032;-94
2022/04/23 06:51:01;;;;;;;8.52;2.85;;;;;;;18.11;46.72;98524.66;5006874;28;20033;-93
2022/04/23 06:53:27;;;;;;;8.52;3.08;;;;;;;18.09;46.82;98523.41;5006857;28;20104;-93
2022/04/23 06:55:52;;;;;;;10.10;3.10;;;;;;;18.08;47.00;98524.56;5006254;28;20033;-92
2022/04/23 06:58:18;;;;;;;9.48;2.60;;;;;;;18.15;47.05;98527.50;5022318;28;20033;-91
2022/04/23 07:00:43;;;;;;;9.05;2.80;;;;;;;18.08;47.13;98528.06;5006075;28;20033;-92
2022/04/23 07:03:09;;;;;;;12.52;2.85;;;;;;;18.16;46.61;98529.91;5006160;28;20038;-93
2022/04/23 07:05:34;;;;;;;13.63;3.40;;;;;;;18.17;46.86;98536.13;5004767;28;20025;-92
2022/04/23 07:08:01;;;;;;;11.40;3.30;;;;;;;18.17;47.26;98520.59;5036214;28;20049;-91
2022/04/23 07:10:28;;;;;;;7.63;3.03;;;;;;;18.14;47.32;98537.63;5021824;28;20037;-91
2022/04/23 07:12:54;;;;;;;4.40;2.67;;;;;;;18.23;46.56;98534.78;5005154;28;20029;-93
2022/04/23 07:15:20;;;;;;;6.57;2.70;;;;;;;18.23;47.05;98526.63;5005669;28;20036;-91
2022/04/23 07:17:47;;;;;;;6.32;2.92;;;;;;;18.32;46.40;98540.94;5037731;28;20048;-93
2022/04/23 07:20:14;;;;;;;12.35;3.10;;;;;;;18.45;46.26;98549.91;5005995;28;20053;-93
2022/04/23 07:22:39;;;;;;;14.70;3.13;;;;;;;18.29;47.23;98551.72;5006874;28;20045;-93
2022/04/23 07:25:08;;;;;;;6.63;2.47;;;;;;;18.29;47.47;98549.00;5006307;28;20037;-93
2022/04/23 07:27:33;;;;;;;10.40;3.05;;;;;;;18.49;47.39;98550.00;5005444;28;20025;-93
2022/04/23 07:29:59;;;;;;;8.77;2.90;;;;;;;18.59;46.32;98555.00;5005710;28;20122;-93
2022/04/23 07:32:26;;;;;;;8.32;2.63;;;;;;;18.73;46.43;98560.09;5004305;28;20088;-93
2022/04/23 07:37:35;;;;;;;8.05;3.10;;;;;;;19.00;44.85;98566.78;5023843;28;20036;-93
2022/04/23 07:40:12;;;;;;;5.15;2.65;;;;;;;19.11;44.82;98576.13;5003483;28;20056;-93
2022/04/23 07:42:37;;;;;;;10.88;2.80;;;;;;;19.16;44.65;98572.34;5004416;28;20068;-92
2022/04/23 07:45:04;;;;;;;6.82;2.60;;;;;;;19.24;45.23;98578.81;5021567;28;20045;-94
2022/04/23 07:47:30;;;;;;;7.63;3.00;;;;;;;19.05;45.14;98571.22;5005938;28;20482;-93
2022/04/23 07:49:55;;;;;;;5.88;2.58;;;;;;;18.86;45.03;98580.00;5004528;28;20033;-93
2022/04/23 07:52:21;;;;;;;11.90;5.07;;;;;;;18.82;46.21;98590.00;5002380;28;20037;-94
2022/04/23 07:54:46;;;;;;;9.13;3.40;;;;;;;18.89;46.04;98584.78;5005192;28;20476;-87
2022/04/23 07:57:12;;;;;;;12.30;5.10;;;;;;;18.89;46.12;98579.34;5036668;28;20475;-87
2022/04/23 07:59:44;;;;;;;5.80;2.67;;;;;;;18.85;46.44;98575.69;5018342;28;20021;-87
2022/04/23 08:02:09;;;;;;;;;;;;;;;18.95;46.36;98594.34;5034363;28;20506;-84
2022/04/23 08:04:35;;;;;;;9.23;3.35;;;;;;;18.98;45.43;98586.22;5034466;28;20019;-87
2022/04/23 08:07:00;;;;;;;13.98;3.20;;;;;;;19.10;46.15;98584.63;5018567;28;20025;-87
2022/04/23 08:09:26;;;;;;;6.63;3.38;;;;;;;19.05;46.03;98588.41;5018733;28;20051;-87
2022/04/23 08:11:51;;;;;;;9.57;3.67;;;;;;;19.12;45.77;98571.44;5002385;28;20032;-87
2022/04/23 08:14:17;;;;;;;7.68;2.92;;;;;;;19.23;46.01;98586.19;5017654;28;20059;-87
2022/04/23 08:16:45;;;;;;;6.53;2.60;;;;;;;19.30;46.10;98586.41;5018868;28;20029;-88
2022/04/23 08:19:10;;;;;;;5.25;3.10;;;;;;;19.22;46.70;98592.78;5036031;28;20477;-86
2022/04/23 08:21:36;;;;;;;5.13;2.58;;;;;;;19.26;45.97;98595.59;5035380;28;20033;-87
2022/04/23 08:24:01;;;;;;;5.15;2.58;;;;;;;19.09;45.25;98586.56;5034805;28;20395;-87
2022/04/23 08:26:27;;;;;;;5.28;2.45;;;;;;;18.96;45.82;98598.63;5017366;28;20423;-87
2022/04/23 08:31:36;;;;;;;4.85;2.85;;;;;;;19.12;45.93;98604.19;5035400;28;20163;-89
2022/04/23 08:34:03;;;;;;;8.75;2.85;;;;;;;19.24;46.04;98598.69;5017588;28;20033;-86
2022/04/23 08:36:30;;;;;;;7.78;2.75;;;;;;;19.18;46.94;98614.50;5001349;28;20495;-87
2022/04/23 08:38:57;;;;;;;7.55;2.67;;;;;;;19.17;46.41;98599.28;5017655;28;20033;-87
2022/04/23 08:41:34;;;;;;;6.47;2.65;;;;;;;19.05;46.40;98610.22;5016979;28;20138;-88
2022/04/23 08:44:10;;;;;;;7.75;2.65;;;;;;;18.85;46.96;98592.06;5002009;28;20029;-91
2022/04/23 08:46:37;;;;;;;7.70;3.03;;;;;;;18.94;47.35;98598.19;5033041;28;20406;-87
2022/04/23 08:49:17;;;;;;;9.27;3.15;;;;;;;19.09;47.87;98613.03;5033663;28;20044;-88
2022/04/23 08:51:47;;;;;;;7.40;3.10;;;;;;;19.16;47.34;98618.72;5033609;28;20025;-85
2022/04/23 08:54:14;;;;;;;6.43;2.72;;;;;;;19.09;47.00;98611.13;5000825;28;20069;-87
2022/04/23 08:56:44;;;;;;;7.97;3.33;;;;;;;18.99;47.02;98625.25;5017221;28;20021;-87
2022/04/23 08:59:29;;;;;;;8.15;3.13;;;;;;;19.06;47.59;98633.63;5013090;28;20038;-86
2022/04/23 09:01:55;;;;;;;7.65;2.80;;;;;;;19.16;47.47;98622.25;4996814;28;20037;-87
2022/04/23 09:04:20;;;;;;;10.80;3.45;;;;;;;19.40;46.80;98620.59;4980548;28;20538;-85
2022/04/23 09:06:47;;;;;;;9.73;3.60;;;;;;;19.69;46.64;98624.16;4997243;28;20025;-87
2022/04/23 09:09:22;;;;;;;8.98;2.83;;;;;;;19.59;46.20;98620.78;4980782;28;20030;-87
2022/04/23 09:11:57;;;;;;;9.00;3.20;;;;;;;19.48;46.48;98619.66;4980511;28;20664;-89
2022/04/23 09:14:31;;;;;;;7.50;3.05;;;;;;;19.43;46.09;98624.59;4981917;28;20474;-86
2022/04/23 09:25:15;;;;;;;5.82;2.70;;;;;;;20.20;43.86;98597.06;4986702;28;20436;-89
2022/04/23 09:27:43;;;;;;;7.78;2.80;;;;;;;20.44;43.84;98596.09;4980941;28;20029;-88
2022/04/23 09:30:09;;;;;;;5.13;2.75;;;;;;;20.64;42.70;98604.41;4998393;28;20041;-90
2022/04/23 09:32:35;;;;;;;7.88;2.75;;;;;;;20.71;42.29;98597.16;4981594;28;20030;-89
2022/04/23 09:35:11;;;;;;;5.72;2.65;;;;;;;20.70;42.83;98606.50;4982022;28;20061;-90
2022/04/23 09:40:26;;;;;;;7.10;2.90;;;;;;;20.25;44.57;98596.78;5035003;28;20040;-90
2022/04/23 09:42:56;;;;;;;5.45;2.40;;;;;;;20.02;45.78;98606.72;5001362;28;20029;-89
2022/04/23 09:45:24;;;;;;;6.65;3.10;;;;;;;19.97;44.46;98594.13;5034092;28;20049;-89
2022/04/23 09:47:49;;;;;;;5.32;2.90;;;;;;;20.05;45.08;98601.38;5001770;28;20025;-90
2022/04/23 09:50:15;;;;;;;11.52;3.15;;;;;;;19.94;45.48;98583.88;5018632;28;20469;-90
2022/04/23 09:52:42;;;;;;;10.95;3.17;;;;;;;19.69;46.22;98596.84;5001697;28;20053;-89
2022/04/23 09:55:08;;;;;;;7.40;3.00;;;;;;;19.77;45.71;98585.78;5000644;28;20025;-88
2022/04/23 09:57:34;;;;;;;9.25;3.13;;;;;;;19.73;46.03;98576.69;5005974;28;20498;-90
2022/04/23 09:59:59;;;;;;;6.57;2.95;;;;;;;19.79;46.34;98586.22;5005521;28;20462;-89
2022/04/23 10:02:29;;;;;;;6.53;3.20;;;;;;;19.85;44.99;98594.19;5006378;28;20464;-89
2022/04/23 10:04:57;;;;;;;7.95;2.88;;;;;;;19.78;45.04;98568.25;5037807;28;20407;-87
2022/04/23 10:07:24;;;;;;;9.93;3.13;;;;;;;19.98;45.20;98588.31;5005301;28;20426;-89
2022/04/23 10:09:50;;;;;;;5.75;2.60;;;;;;;20.04;45.23;98577.09;5006891;28;20032;-87
2022/04/23 10:12:19;;;;;;;7.95;3.45;;;;;;;20.08;46.07;98583.47;5004993;28;20021;-88
2022/04/23 10:14:57;;;;;;;10.13;3.22;;;;;;;20.11;45.73;98586.28;5019988;28;20041;-88
2022/04/23 10:17:24;;;;;;;10.18;3.55;;;;;;;20.16;45.70;98591.47;5003537;28;20022;-87
2022/04/23 10:19:49;;;;;;;9.70;3.42;;;;;;;20.11;46.03;98585.50;5020243;28;20040;-87
2022/04/23 10:22:45;;;;;;;19.48;3.53;;;;;;;20.01;46.09;98584.06;5003092;28;20454;-88
2022/04/23 10:25:22;;;;;;;16.83;4.40;;;;;;;20.09;46.90;98572.19;5037763;28;20475;-88
2022/04/23 10:27:48;;;;;;;10.05;3.63;;;;;;;20.34;44.65;98583.75;5020575;28;20064;-87
2022/04/23 10:30:14;;;;;;;8.75;3.38;;;;;;;20.44;44.61;98578.88;5020747;28;20087;-87
2022/04/23 10:32:40;;;;;;;9.18;3.15;;;;;;;20.55;44.51;98579.94;5019054;28;20503;-87
2022/04/23 10:35:17;;;;;;;10.05;3.00;;;;;;;20.80;43.77;98588.75;5020446;28;20025;-87
2022/04/23 10:37:44;;;;;;;5.57;2.92;;;;;;;20.83;43.72;98584.50;5020463;28;20032;-86
2022/04/23 10:40:17;;;;;;;6.30;3.08;;;;;;;20.94;43.91;98591.03;5002585;28;20059;-87
2022/04/23 10:43:06;;;;;;;6.43;2.70;;;;;;;21.14;43.21;98586.38;5037432;28;20071;-86
2022/04/23 10:45:32;;;;;;;8.30;3.33;;;;;;;21.14;43.55;98578.16;5020254;28;20104;-88
2022/04/23 10:48:19;;;;;;;8.55;3.45;;;;;;;21.31;43.44;98575.03;5020858;28;20545;-87
2022/04/23 10:51:08;;;;;;;4.57;2.63;;;;;;;21.47;42.45;98574.19;5037376;28;20403;-86
2022/04/23 10:53:42;;;;;;;7.20;3.38;;;;;;;21.43;42.46;98585.06;5037173;28;20030;-85
2022/04/23 10:56:11;;;;;;;7.22;3.40;;;;;;;21.33;43.27;98582.84;5037338;28;20468;-89
2022/04/23 10:58:43;;;;;;;14.07;3.53;;;;;;;21.42;42.66;98582.66;5020666;28;20025;-87
2022/04/23 11:01:29;;;;;;;11.32;3.20;;;;;;;21.59;41.33;98590.47;5036086;28;20025;-87
2022/04/23 11:03:54;;;;;;;7.13;2.92;;;;;;;21.61;39.64;98590.91;5036301;28;20068;-87
2022/04/23 11:12:26;;;;;;;7.65;2.47;;;;;;;21.61;40.24;98596.38;5036694;28;20163;-89
2022/04/23 11:14:53;;;;;;;7.10;2.53;;;;;;;21.58;39.45;98595.16;5020782;28;20017;-88
2022/04/23 11:17:25;;;;;;;9.80;2.45;;;;;;;21.72;39.61;98585.63;5019227;28;20086;-87
2022/04/23 11:19:57;;;;;;;6.90;2.40;;;;;;;21.75;40.01;98595.88;5019490;28;20041;-87
2022/04/23 11:22:22;;;;;;;;;;;;;;;21.59;40.54;98587.72;5019718;28;20021;-88
2022/04/23 11:24:48;;;;;;;5.78;2.35;;;;;;;21.66;40.30;98573.38;5036151;28;20498;-86
2022/04/23 11:27:24;;;;;;;4.90;2.38;;;;;;;21.71;39.47;98582.09;5019433;28;20044;-86
2022/04/23 11:29:53;;;;;;;7.00;2.35;;;;;;;21.94;39.46;98584.09;5019415;28;20056;-86
2022/04/23 11:32:26;;;;;;;8.43;2.45;;;;;;;21.86;39.24;98598.81;5019707;28;20025;-88
2022/04/23 11:35:09;;;;;;;5.40;2.28;;;;;;;21.80;38.92;98595.56;5017981;28;20068;-88
2022/04/23 11:37:38;;;;;;;9.45;2.63;;;;;;;21.79;38.77;98596.75;5001901;28;20112;-87
2022/04/23 11:40:09;;;;;;;8.50;2.28;;;;;;;21.76;38.33;98597.44;5034636;28;20087;-87
2022/04/23 11:42:41;;;;;;;6.65;2.17;;;;;;;21.69;38.98;98592.63;5018508;28;20032;-88
2022/04/23 11:45:08;;;;;;;7.38;2.33;;;;;;;21.61;39.08;98587.38;5017864;28;20053;-87
2022/04/23 11:47:36;;;;;;;11.05;2.85;;;;;;;21.61;39.64;98582.69;5019181;28;20025;-87
2022/04/23 11:50:08;;;;;;;10.20;2.60;;;;;;;21.65;40.00;98596.47;5018003;28;20079;-88
2022/04/23 11:52:34;;;;;;;9.23;2.50;;;;;;;21.53;39.51;98591.91;5018169;28;20079;-88
2022/04/23 11:55:01;;;;;;;10.00;3.08;;;;;;;21.66;38.66;98584.34;5019023;28;20033;-85